Accueil
METAR-TAF:

METAR-TAF

Aéroports :

Cherbourg, France

Aéroport de Cherbourg - Maupertus

latitude: 49-39N, longitude: 001-28W, altitude: 138 m

Observation

Le bulletin a été fait il y a 28 minutes, à 17:00 UTC
Vent 16 kt de ouest/sud-ouest
Température 17°C
Humidité 88%
Pression 1016 hPa
Visibilité 10 km ou plus
Ciel couvert à une hauteur de 900 ft

METAR: LFRC 251700Z AUTO 24016KT 9999 OVC009 17/15 Q1016 TEMPO 27015G25KT DZ BKN010

Heure: 19:28 (17:28 UTC)


TAF: absent

Observations et prévisions météorologiques de plus de 4000 aéroports (messages METAR et TAF).

Les stations disponibles sont représentées par des disques jaunes et rouges sur la carte.

Passer la souris dessus pour voir le nom de la station.

Cliquer dessus pour voir les observations et prévisions météorologiques.

Pour changer de carte: cliquez sur les boutons verts avec une croix noire pour zoomer, sur le bouton vert avec un tiret pour effectuer un zoom arrière, ou sur les flèches vertes pour les cartes adjacentes.


METAR-TAF: